Attila, Illinois
Current Conditions -  °F | °C
As of 7:45 AM on Saturday 25 Oct 2014 (Local Time) from KMWA Reporting Station
Scattered Clouds Scattered Clouds  
Wind Chill: 57°   Ceiling: Unl
Heat Index: 57°   Visibility: 20mi
Dew Point: 55°   Wind: 5mph
Humidity: 94%   Direction: 200°SSW
Pressure: 30.03"   Gusts: NA
Location:  37.7887°N, 88.8655°W
Report Text: KMWA 251245Z 20004KT 20SM SCT018 14/13 A3003
Loading
Personal Weather Stations






























Interactive Weather Map
Tropical Storm Tracking
New forecast layout! Learn more

10-Day Weather Forecast

Advertisements
Track Severe Weather on mobile